Time;durP1;ratioP1;P1;durP2;ratioP2;P2;SDS_P1;SDS_P2;PMS_P1;PMS_P2;Temp;Humidity;BMP_temperature;BMP_pressure;BME280_temperature;BME280_humidity;BME280_pressure;Samples;Min_cycle;Max_cycle;Signal;HPM_P1;HPM_P2
2023/07/10 00:00:54;;;;;;;;;3.75;3.75;;;;;;;;5022999;28;44862;-81
2023/07/10 00:03:19;;;;;;;;;6.50;4.25;;;;;;;;5026271;28;45755;-85
2023/07/10 00:05:45;;;;;;;;;5.75;5.75;;;;;;;;5024020;28;45459;-82
2023/07/10 00:08:10;;;;;;;;;5.00;5.00;;;;;;;;5017434;28;46161;-82
2023/07/10 00:10:35;;;;;;;;;7.25;6.25;;;;;;;;5022454;28;45824;-84
2023/07/10 00:13:01;;;;;;;;;6.67;5.33;;;;;;;;5009286;28;45415;-83
2023/07/10 00:15:26;;;;;;;;;49.00;37.67;;;;;;;;5005521;28;46006;-84
2023/07/10 00:17:52;;;;;;;;;41.33;33.67;;;;;;;;5013558;28;46804;-83
2023/07/10 00:20:18;;;;;;;;;42.00;36.00;;;;;;;;5005191;28;45881;-83
2023/07/10 00:22:44;;;;;;;;;23.33;20.00;;;;;;;;5018527;28;45840;-84
2023/07/10 00:25:10;;;;;;;;;32.00;23.33;;;;;;;;5019154;28;45837;-83
2023/07/10 00:27:35;;;;;;;;;14.67;11.67;;;;;;;;5014748;28;47613;-83
2023/07/10 00:30:01;;;;;;;;;27.67;21.33;;;;;;;;5022389;28;45415;-83
2023/07/10 00:32:26;;;;;;;;;13.00;8.33;;;;;;;;5032055;28;45786;-83
2023/07/10 00:34:51;;;;;;;;;15.67;13.00;;;;;;;;5020146;28;45902;-82
2023/07/10 00:37:16;;;;;;;;;13.00;10.00;;;;;;;;5005679;28;47161;-83
2023/07/10 00:39:43;;;;;;;;;9.67;9.67;;;;;;;;5016215;28;45533;-77
2023/07/10 00:42:20;;;;;;;;;15.00;12.67;;;;;;;;5013486;28;45414;-77
2023/07/10 00:44:48;;;;;;;;;17.33;11.67;;;;;;;;5014430;28;45383;-81
2023/07/10 00:47:17;;;;;;;;;11.33;9.00;;;;;;;;4989525;28;47899;-82
2023/07/10 00:49:58;;;;;;;;;12.33;9.33;;;;;;;;5022649;28;45523;-78
2023/07/10 00:52:25;;;;;;;;;17.67;16.33;;;;;;;;4994729;28;45515;-81
2023/07/10 00:54:52;;;;;;;;;17.33;13.33;;;;;;;;5014257;28;45731;-82
2023/07/10 00:57:22;;;;;;;;;10.00;10.00;;;;;;;;5006404;28;46980;-77
2023/07/10 00:59:49;;;;;;;;;11.67;10.00;;;;;;;;5020081;28;45845;-76
2023/07/10 01:02:14;;;;;;;;;11.33;8.67;;;;;;;;5010720;28;45700;-75
2023/07/10 01:04:45;;;;;;;;;14.33;10.67;;;;;;;;5012128;28;45448;-76
2023/07/10 01:07:12;;;;;;;;;15.33;11.33;;;;;;;;5014285;28;47874;-83
2023/07/10 01:09:38;;;;;;;;;18.00;14.00;;;;;;;;5018714;28;45742;-81
2023/07/10 01:12:05;;;;;;;;;12.00;11.00;;;;;;;;5032182;28;45884;-82
2023/07/10 01:14:35;;;;;;;;;12.67;11.33;;;;;;;;5016650;28;46247;-82
2023/07/10 01:17:08;;;;;;;;;12.67;11.33;;;;;;;;5028912;28;46502;-75
2023/07/10 01:19:35;;;;;;;;;10.00;10.00;;;;;;;;5017638;28;45484;-77
2023/07/10 01:22:01;;;;;;;;;11.33;9.00;;;;;;;;4993178;28;45456;-77
2023/07/10 01:24:26;;;;;;;;;6.00;6.00;;;;;;;;5013644;28;46019;-76
2023/07/10 01:26:51;;;;;;;;;12.67;10.33;;;;;;;;5006133;28;45884;-76
2023/07/10 01:29:28;;;;;;;;;7.67;7.67;;;;;;;;5016104;28;45746;-78
2023/07/10 01:31:55;;;;;;;;;11.33;9.67;;;;;;;;5013332;28;45774;-77
2023/07/10 01:34:22;;;;;;;;;6.00;6.00;;;;;;;;5013941;28;45512;-77
2023/07/10 01:36:48;;;;;;;;;10.33;7.33;;;;;;;;4991894;28;46967;-78
2023/07/10 01:39:13;;;;;;;;;11.00;9.00;;;;;;;;5013641;28;45382;-77
2023/07/10 01:41:40;;;;;;;;;12.00;9.67;;;;;;;;5026505;28;45506;-76
2023/07/10 01:44:21;;;;;;;;;8.33;8.33;;;;;;;;5012886;28;45916;-76
2023/07/10 01:46:49;;;;;;;;;9.33;8.00;;;;;;;;5002820;28;45917;-76
2023/07/10 01:49:15;;;;;;;;;7.67;7.33;;;;;;;;5001183;28;44786;-78
2023/07/10 01:51:40;;;;;;;;;9.33;8.00;;;;;;;;5008454;28;45534;-78
2023/07/10 01:54:10;;;;;;;;;8.33;7.00;;;;;;;;5026637;28;45395;-76
2023/07/10 01:56:35;;;;;;;;;7.00;3.00;;;;;;;;5005939;28;47294;-76
2023/07/10 01:59:00;;;;;;;;;7.00;7.00;;;;;;;;5033013;28;45679;-76
2023/07/10 02:01:26;;;;;;;;;9.33;9.33;;;;;;;;5002215;28;45842;-77
2023/07/10 02:03:51;;;;;;;;;12.00;9.67;;;;;;;;5006234;28;45459;-77
2023/07/10 02:06:16;;;;;;;;;8.00;8.00;;;;;;;;5018389;28;47008;-77
2023/07/10 02:08:41;;;;;;;;;12.00;9.00;;;;;;;;5026042;28;45748;-76
2023/07/10 02:11:07;;;;;;;;;9.33;8.67;;;;;;;;5014880;28;45754;-76
2023/07/10 02:13:32;;;;;;;;;10.00;10.00;;;;;;;;4996521;28;45470;-76
2023/07/10 02:16:01;;;;;;;;;6.00;6.00;;;;;;;;5016142;28;45889;-77
2023/07/10 02:18:26;;;;;;;;;7.33;7.33;;;;;;;;5011524;28;45686;-77
2023/07/10 02:20:53;;;;;;;;;14.00;12.33;;;;;;;;5012997;28;45628;-76
2023/07/10 02:23:18;;;;;;;;;9.33;8.33;;;;;;;;5013291;28;45973;-77
2023/07/10 02:25:44;;;;;;;;;8.00;7.67;;;;;;;;5017102;28;45474;-76
2023/07/10 02:28:09;;;;;;;;;7.33;7.33;;;;;;;;5028127;28;45407;-76
2023/07/10 02:30:36;;;;;;;;;13.50;9.00;;;;;;;;5011120;28;45654;-76
2023/07/10 02:33:01;;;;;;;;;9.33;9.33;;;;;;;;5022028;28;45744;-79
2023/07/10 02:35:27;;;;;;;;;10.00;9.33;;;;;;;;5007370;28;47521;-78
2023/07/10 02:37:52;;;;;;;;;5.67;5.00;;;;;;;;5000779;28;45459;-77
2023/07/10 02:40:17;;;;;;;;;6.33;6.33;;;;;;;;5006792;28;45660;-75
2023/07/10 02:42:42;;;;;;;;;7.00;6.67;;;;;;;;5021810;28;45917;-77
2023/07/10 02:45:08;;;;;;;;;8.33;7.67;;;;;;;;5007799;28;45740;-81
2023/07/10 02:47:33;;;;;;;;;7.33;6.00;;;;;;;;5001519;28;45463;-83
2023/07/10 02:49:58;;;;;;;;;6.00;4.00;;;;;;;;5018507;28;45811;-82
2023/07/10 02:52:24;;;;;;;;;6.67;6.67;;;;;;;;5006650;28;47202;-83
2023/07/10 02:54:49;;;;;;;;;8.33;5.67;;;;;;;;5033330;28;45666;-82
2023/07/10 02:57:14;;;;;;;;;5.33;5.33;;;;;;;;5024953;28;45388;-84
2023/07/10 02:59:39;;;;;;;;;4.67;4.33;;;;;;;;5029985;28;45097;-82
2023/07/10 03:02:05;;;;;;;;;6.67;6.33;;;;;;;;5006384;28;46073;-76
2023/07/10 03:04:30;;;;;;;;;9.00;5.00;;;;;;;;4995310;28;47502;-78
2023/07/10 03:06:56;;;;;;;;;4.00;4.00;;;;;;;;5019241;28;45551;-82
2023/07/10 03:09:21;;;;;;;;;7.00;4.67;;;;;;;;5002592;28;45426;-76
2023/07/10 03:11:46;;;;;;;;;6.00;6.00;;;;;;;;5015933;28;45345;-76
2023/07/10 03:14:11;;;;;;;;;6.67;6.67;;;;;;;;5014853;28;46098;-76
2023/07/10 03:16:37;;;;;;;;;5.67;3.00;;;;;;;;5010279;28;45827;-76
2023/07/10 03:19:02;;;;;;;;;6.33;4.00;;;;;;;;5012143;28;45448;-75
2023/07/10 03:21:27;;;;;;;;;3.33;3.33;;;;;;;;5018719;28;46012;-76
2023/07/10 03:23:53;;;;;;;;;4.67;4.67;;;;;;;;5021757;28;45685;-77
2023/07/10 03:26:18;;;;;;;;;5.00;5.00;;;;;;;;5009333;28;45656;-78
2023/07/10 03:28:43;;;;;;;;;6.00;5.33;;;;;;;;4996264;28;47035;-76
2023/07/10 03:31:08;;;;;;;;;8.00;4.00;;;;;;;;4992642;28;45894;-76
2023/07/10 03:33:34;;;;;;;;;7.33;4.00;;;;;;;;5009260;28;46958;-77
2023/07/10 03:36:08;;;;;;;;;5.33;4.33;;;;;;;;5018495;28;45707;-77
2023/07/10 03:38:34;;;;;;;;;8.33;5.00;;;;;;;;5026056;28;45924;-78
2023/07/10 03:40:59;;;;;;;;;5.00;3.67;;;;;;;;5025465;28;45733;-76
2023/07/10 03:43:25;;;;;;;;;5.67;5.00;;;;;;;;5013293;28;47714;-76
2023/07/10 03:45:51;;;;;;;;;6.67;4.67;;;;;;;;5023767;28;45843;-77
2023/07/10 03:48:17;;;;;;;;;6.00;4.67;;;;;;;;5010864;28;45731;-77
2023/07/10 03:50:42;;;;;;;;;5.67;5.00;;;;;;;;5011782;28;45410;-77
2023/07/10 03:53:08;;;;;;;;;7.00;5.00;;;;;;;;5010128;28;45779;-76
2023/07/10 03:55:33;;;;;;;;;4.33;4.33;;;;;;;;5013933;28;45454;-76
2023/07/10 03:57:58;;;;;;;;;5.00;5.00;;;;;;;;5010135;28;45907;-76
2023/07/10 04:00:24;;;;;;;;;5.00;5.00;;;;;;;;5012632;28;46022;-76
2023/07/10 04:02:49;;;;;;;;;4.67;4.67;;;;;;;;5013701;28;46343;-76
2023/07/10 04:05:14;;;;;;;;;7.00;5.67;;;;;;;;5015696;28;45783;-76
2023/07/10 04:07:39;;;;;;;;;3.67;3.33;;;;;;;;5015568;28;45735;-77
2023/07/10 04:10:05;;;;;;;;;5.00;5.00;;;;;;;;5016619;28;45668;-75
2023/07/10 04:12:30;;;;;;;;;6.00;4.67;;;;;;;;5020562;28;46648;-78
2023/07/10 04:14:55;;;;;;;;;5.67;4.67;;;;;;;;4999490;28;45351;-78
2023/07/10 04:17:20;;;;;;;;;8.00;6.00;;;;;;;;5004342;28;45387;-82
2023/07/10 04:19:46;;;;;;;;;6.00;5.67;;;;;;;;5009643;28;45592;-82
2023/07/10 04:22:11;;;;;;;;;6.33;5.67;;;;;;;;5017378;28;46331;-80
2023/07/10 04:24:36;;;;;;;;;3.00;3.00;;;;;;;;5003168;28;45456;-82
2023/07/10 04:27:01;;;;;;;;;5.00;4.00;;;;;;;;5006697;28;45438;-81
2023/07/10 04:29:27;;;;;;;;;5.00;4.00;;;;;;;;4997775;28;45587;-83
2023/07/10 04:31:52;;;;;;;;;6.00;5.00;;;;;;;;5001082;28;47010;-82
2023/07/10 04:34:17;;;;;;;;;4.33;4.00;;;;;;;;5001834;28;45165;-83
2023/07/10 04:36:43;;;;;;;;;5.00;4.00;;;;;;;;5003326;28;45390;-82
2023/07/10 04:39:09;;;;;;;;;9.67;4.67;;;;;;;;5002055;28;46255;-83
2023/07/10 04:41:34;;;;;;;;;7.00;5.33;;;;;;;;5019451;28;45940;-83
2023/07/10 04:44:00;;;;;;;;;7.33;6.00;;;;;;;;5030974;28;45687;-82
2023/07/10 04:46:26;;;;;;;;;6.50;4.50;;;;;;;;5005559;28;45660;-83
2023/07/10 04:48:52;;;;;;;;;6.67;6.67;;;;;;;;5027306;28;45747;-84
2023/07/10 04:51:18;;;;;;;;;5.00;5.00;;;;;;;;5025912;28;48239;-86
2023/07/10 04:53:43;;;;;;;;;13.00;12.33;;;;;;;;5025328;28;45556;-85
2023/07/10 04:56:10;;;;;;;;;8.67;7.67;;;;;;;;5024802;28;45879;-88
2023/07/10 04:58:45;;;;;;;;;10.33;7.33;;;;;;;;5017956;28;45537;-83
2023/07/10 05:01:10;;;;;;;;;7.00;7.00;;;;;;;;5021729;28;45626;-82
2023/07/10 05:03:35;;;;;;;;;3.75;3.75;;;;;;;;5021380;28;45435;-82
2023/07/10 05:06:01;;;;;;;;;6.00;6.00;;;;;;;;5001688;28;45500;-85
2023/07/10 05:08:26;;;;;;;;;10.75;9.00;;;;;;;;5003099;28;45657;-83
2023/07/10 05:10:54;;;;;;;;;2.75;2.75;;;;;;;;5008571;28;46969;-82
2023/07/10 05:13:20;;;;;;;;;4.00;4.00;;;;;;;;5018086;28;45852;-82
2023/07/10 05:15:46;;;;;;;;;5.75;4.50;;;;;;;;5005133;28;45474;-77
2023/07/10 05:18:11;;;;;;;;;5.00;5.00;;;;;;;;4993279;28;46761;-75
2023/07/10 05:20:37;;;;;;;;;4.00;4.00;;;;;;;;5012234;28;45985;-75
2023/07/10 05:23:03;;;;;;;;;4.00;4.00;;;;;;;;4994637;28;45598;-75
2023/07/10 05:25:28;;;;;;;;;5.75;5.50;;;;;;;;5008019;28;45680;-73
2023/07/10 05:27:53;;;;;;;;;3.00;3.00;;;;;;;;5002536;28;45795;-71
2023/07/10 05:30:18;;;;;;;;;2.75;2.75;;;;;;;;5012695;28;45774;-73
2023/07/10 05:32:44;;;;;;;;;5.50;4.00;;;;;;;;5009993;28;46113;-72
2023/07/10 05:35:09;;;;;;;;;3.00;3.00;;;;;;;;5013711;28;45775;-72
2023/07/10 05:37:34;;;;;;;;;2.75;2.75;;;;;;;;5009313;28;45440;-72
2023/07/10 05:39:59;;;;;;;;;4.00;4.00;;;;;;;;4991491;28;47133;-71
2023/07/10 05:42:25;;;;;;;;;2.00;2.00;;;;;;;;4994389;28;45485;-73
2023/07/10 05:44:50;;;;;;;;;3.75;3.75;;;;;;;;5002548;28;45695;-81
2023/07/10 05:47:16;;;;;;;;;2.25;2.25;;;;;;;;4998074;28;46690;-77
2023/07/10 05:49:41;;;;;;;;;3.00;3.00;;;;;;;;5011540;28;45846;-78
2023/07/10 05:52:06;;;;;;;;;4.00;4.00;;;;;;;;4989001;28;45736;-79
2023/07/10 05:54:31;;;;;;;;;4.00;3.00;;;;;;;;4996182;28;45574;-80
2023/07/10 05:56:59;;;;;;;;;2.25;2.25;;;;;;;;5009091;28;45647;-79
2023/07/10 05:59:24;;;;;;;;;3.25;3.25;;;;;;;;5014689;28;46486;-81
2023/07/10 06:01:50;;;;;;;;;5.00;3.50;;;;;;;;5012120;28;45843;-78
2023/07/10 06:04:15;;;;;;;;;3.50;3.50;;;;;;;;5001641;28;46134;-79
2023/07/10 06:06:40;;;;;;;;;4.50;4.25;;;;;;;;4995672;28;47452;-79
2023/07/10 06:09:05;;;;;;;;;5.25;2.25;;;;;;;;5012714;28;45961;-78
2023/07/10 06:11:30;;;;;;;;;2.50;2.50;;;;;;;;4994862;28;45884;-78
2023/07/10 06:13:56;;;;;;;;;2.50;2.50;;;;;;;;5013716;28;45909;-81
2023/07/10 06:16:24;;;;;;;;;4.75;3.00;;;;;;;;4997871;28;47557;-79
2023/07/10 06:18:49;;;;;;;;;2.50;2.50;;;;;;;;5007044;28;45825;-80
2023/07/10 06:21:14;;;;;;;;;3.00;2.00;;;;;;;;5013376;28;45455;-80
2023/07/10 06:23:40;;;;;;;;;4.00;3.00;;;;;;;;5011749;28;45516;-79
2023/07/10 06:26:05;;;;;;;;;1.75;1.25;;;;;;;;4994788;28;46110;-80
2023/07/10 06:28:31;;;;;;;;;3.00;1.25;;;;;;;;4992327;28;46966;-78
2023/07/10 06:30:58;;;;;;;;;4.25;3.25;;;;;;;;4995009;28;45622;-78
2023/07/10 06:33:24;;;;;;;;;4.00;2.50;;;;;;;;5011334;28;45436;-78
2023/07/10 06:35:49;;;;;;;;;2.00;2.00;;;;;;;;4992809;28;46445;-76
2023/07/10 06:38:14;;;;;;;;;6.00;3.00;;;;;;;;5010881;28;45478;-77
2023/07/10 06:40:40;;;;;;;;;2.75;2.75;;;;;;;;4992795;28;46016;-79
2023/07/10 06:43:05;;;;;;;;;2.25;2.25;;;;;;;;4990466;28;45545;-82
2023/07/10 06:45:31;;;;;;;;;3.00;3.00;;;;;;;;4992145;28;46118;-84
2023/07/10 06:47:56;;;;;;;;;1.75;1.00;;;;;;;;4994665;28;46628;-78
2023/07/10 06:50:22;;;;;;;;;2.50;1.50;;;;;;;;5025822;28;45881;-79
2023/07/10 06:52:47;;;;;;;;;3.00;3.00;;;;;;;;5010235;28;46905;-77
2023/07/10 06:55:14;;;;;;;;;6.00;3.25;;;;;;;;5009121;28;45887;-77
2023/07/10 06:57:39;;;;;;;;;5.25;2.25;;;;;;;;4992539;28;48059;-78
2023/07/10 07:00:05;;;;;;;;;2.25;2.25;;;;;;;;4995142;28;45591;-83
2023/07/10 07:02:31;;;;;;;;;3.50;2.25;;;;;;;;5016186;28;46040;-77
2023/07/10 07:04:56;;;;;;;;;2.75;2.00;;;;;;;;5012251;28;45767;-77
2023/07/10 07:07:21;;;;;;;;;4.00;3.00;;;;;;;;4993971;28;47180;-80
2023/07/10 07:09:47;;;;;;;;;4.00;2.25;;;;;;;;4980167;28;45780;-79
2023/07/10 07:12:12;;;;;;;;;4.00;2.00;;;;;;;;5013549;28;44881;-83
2023/07/10 07:14:37;;;;;;;;;3.50;2.00;;;;;;;;4999162;28;46112;-86
2023/07/10 07:17:04;;;;;;;;;2.25;1.00;;;;;;;;5015285;28;46604;-84
2023/07/10 07:19:29;;;;;;;;;4.50;2.50;;;;;;;;5015157;28;45431;-77
2023/07/10 07:21:55;;;;;;;;;4.25;3.50;;;;;;;;5011519;28;46051;-76
2023/07/10 07:24:20;;;;;;;;;2.75;2.00;;;;;;;;5009186;28;45798;-78
2023/07/10 07:26:45;;;;;;;;;2.75;2.00;;;;;;;;4997326;28;46240;-77
2023/07/10 07:29:10;;;;;;;;;2.25;2.00;;;;;;;;5005862;28;45684;-79
2023/07/10 07:31:37;;;;;;;;;1.50;1.50;;;;;;;;4997155;28;45769;-79
2023/07/10 07:34:03;;;;;;;;;2.00;2.00;;;;;;;;4990905;28;45930;-77
2023/07/10 07:36:32;;;;;;;;;1.75;1.00;;;;;;;;5016057;28;45816;-78
2023/07/10 07:38:57;;;;;;;;;2.50;0.75;;;;;;;;5015005;28;45664;-77
2023/07/10 07:41:22;;;;;;;;;1.50;1.50;;;;;;;;4992782;28;45466;-78
2023/07/10 07:43:48;;;;;;;;;3.25;3.00;;;;;;;;5011872;28;45726;-76
2023/07/10 07:46:14;;;;;;;;;2.75;2.50;;;;;;;;5021197;28;45768;-82
2023/07/10 07:48:39;;;;;;;;;1.50;1.00;;;;;;;;5000058;28;45776;-78
2023/07/10 07:51:05;;;;;;;;;1.00;1.00;;;;;;;;4995265;28;45714;-76
2023/07/10 07:53:32;;;;;;;;;1.75;1.75;;;;;;;;5000586;28;46524;-78
2023/07/10 07:55:57;;;;;;;;;3.50;1.00;;;;;;;;5006125;28;47553;-77
2023/07/10 07:58:23;;;;;;;;;2.00;1.00;;;;;;;;5018063;28;45905;-77
2023/07/10 08:00:48;;;;;;;;;6.00;1.75;;;;;;;;5002034;28;45892;-82
2023/07/10 08:03:14;;;;;;;;;2.00;2.00;;;;;;;;5022812;28;45807;-84
2023/07/10 08:05:39;;;;;;;;;3.50;2.00;;;;;;;;5020459;28;46814;-78
2023/07/10 08:08:05;;;;;;;;;3.75;2.00;;;;;;;;5014278;28;45532;-79
2023/07/10 08:10:38;;;;;;;;;2.25;1.25;;;;;;;;5016696;28;45779;-78
2023/07/10 08:13:04;;;;;;;;;1.75;1.75;;;;;;;;5013737;28;45587;-78
2023/07/10 08:15:29;;;;;;;;;1.75;1.75;;;;;;;;5015552;28;47092;-83
2023/07/10 08:17:55;;;;;;;;;3.00;2.00;;;;;;;;5017777;28;45820;-83
2023/07/10 08:20:20;;;;;;;;;2.50;2.00;;;;;;;;5022088;28;45567;-84
2023/07/10 08:22:45;;;;;;;;;1.75;1.75;;;;;;;;5021156;28;45763;-83
2023/07/10 08:25:10;;;;;;;;;2.00;1.00;;;;;;;;5017948;28;48381;-84
2023/07/10 08:27:36;;;;;;;;;3.25;1.50;;;;;;;;4999568;28;46227;-83
2023/07/10 08:30:01;;;;;;;;;2.50;0.75;;;;;;;;5021573;28;44863;-85
2023/07/10 08:32:26;;;;;;;;;1.00;1.00;;;;;;;;5023297;28;46361;-84
2023/07/10 08:34:52;;;;;;;;;1.00;1.00;;;;;;;;4987592;28;46769;-83
2023/07/10 08:37:17;;;;;;;;;0.00;0.00;;;;;;;;5021545;28;45782;-82
2023/07/10 08:39:42;;;;;;;;;2.25;2.25;;;;;;;;4996854;28;45744;-84
2023/07/10 08:42:17;;;;;;;;;3.00;1.00;;;;;;;;5017401;28;45436;-81
2023/07/10 08:44:42;;;;;;;;;1.25;1.25;;;;;;;;4999466;28;48283;-82
2023/07/10 08:47:31;;;;;;;;;1.25;1.25;;;;;;;;4994368;28;45938;-82
2023/07/10 08:50:15;;;;;;;;;0.50;0.50;;;;;;;;5008846;28;45420;-82
2023/07/10 08:52:47;;;;;;;;;1.50;0.50;;;;;;;;5011460;28;45735;-81
2023/07/10 08:55:13;;;;;;;;;1.00;1.00;;;;;;;;5014160;28;45729;-83
2023/07/10 08:57:42;;;;;;;;;3.50;2.75;;;;;;;;5025635;28;45532;-81
2023/07/10 09:00:10;;;;;;;;;1.25;1.00;;;;;;;;5020285;28;45811;-81
2023/07/10 09:02:43;;;;;;;;;1.00;1.00;;;;;;;;5014806;28;45917;-79
2023/07/10 09:05:14;;;;;;;;;1.00;1.00;;;;;;;;5007792;28;45965;-83
2023/07/10 09:07:44;;;;;;;;;0.75;0.75;;;;;;;;5003712;28;45425;-82
2023/07/10 09:10:14;;;;;;;;;2.00;1.00;;;;;;;;5001973;28;45502;-79
2023/07/10 09:12:41;;;;;;;;;0.50;0.50;;;;;;;;4995414;28;46144;-75
2023/07/10 09:15:06;;;;;;;;;1.50;1.50;;;;;;;;5027867;28;46064;-76
2023/07/10 09:17:36;;;;;;;;;2.00;2.00;;;;;;;;4994555;28;45965;-77
2023/07/10 09:20:03;;;;;;;;;1.25;1.25;;;;;;;;5016926;28;45773;-76
2023/07/10 09:22:30;;;;;;;;;1.00;1.00;;;;;;;;4999718;28;46957;-76
2023/07/10 09:24:55;;;;;;;;;1.00;1.00;;;;;;;;5016847;28;45697;-76
2023/07/10 09:27:21;;;;;;;;;1.75;1.75;;;;;;;;5014777;28;45931;-82
2023/07/10 09:29:49;;;;;;;;;0.00;0.00;;;;;;;;5004092;28;46105;-84
2023/07/10 09:32:16;;;;;;;;;1.00;1.00;;;;;;;;5024171;28;45626;-80
2023/07/10 09:34:45;;;;;;;;;3.00;2.00;;;;;;;;5016461;28;45546;-80
2023/07/10 09:37:12;;;;;;;;;1.00;1.00;;;;;;;;5014473;28;45783;-82
2023/07/10 09:39:37;;;;;;;;;1.00;1.00;;;;;;;;5017552;28;45604;-81
2023/07/10 09:42:03;;;;;;;;;2.00;1.00;;;;;;;;5010702;28;45758;-81
2023/07/10 09:44:42;;;;;;;;;1.25;0.00;;;;;;;;5015400;28;45854;-81
2023/07/10 09:47:13;;;;;;;;;2.25;0.00;;;;;;;;4998322;28;45399;-83
2023/07/10 09:50:07;;;;;;;;;2.33;1.33;;;;;;;;4998886;28;45429;-84
2023/07/10 09:52:41;;;;;;;;;2.00;1.00;;;;;;;;4987184;28;45887;-82
2023/07/10 09:55:15;;;;;;;;;2.50;1.00;;;;;;;;5017711;28;45498;-83
2023/07/10 09:57:48;;;;;;;;;2.75;1.75;;;;;;;;5014614;28;45485;-82
2023/07/10 10:00:18;;;;;;;;;1.00;1.00;;;;;;;;5001199;28;45458;-82
2023/07/10 10:03:07;;;;;;;;;1.00;1.00;;;;;;;;5015387;28;45451;-85
2023/07/10 10:05:33;;;;;;;;;0.67;0.67;;;;;;;;5004053;28;47274;-82
2023/07/10 10:08:04;;;;;;;;;4.00;2.33;;;;;;;;4996448;28;45520;-83
2023/07/10 10:10:29;;;;;;;;;1.00;1.00;;;;;;;;5014451;28;45600;-84
2023/07/10 10:13:03;;;;;;;;;1.00;1.00;;;;;;;;5014294;28;45535;-81
2023/07/10 10:15:29;;;;;;;;;1.33;0.00;;;;;;;;4995299;28;47176;-83
2023/07/10 10:17:57;;;;;;;;;0.25;0.00;;;;;;;;5010115;28;45482;-83
2023/07/10 10:20:28;;;;;;;;;1.00;1.00;;;;;;;;5000386;28;46082;-82
2023/07/10 10:22:53;;;;;;;;;1.00;1.00;;;;;;;;5014529;28;47051;-83
2023/07/10 10:25:21;;;;;;;;;0.00;0.00;;;;;;;;4988193;28;47687;-83
2023/07/10 10:27:56;;;;;;;;;0.50;0.50;;;;;;;;5016163;28;45120;-85
2023/07/10 10:30:24;;;;;;;;;2.00;1.00;;;;;;;;5000213;28;46009;-84
2023/07/10 10:32:57;;;;;;;;;1.00;1.00;;;;;;;;4982977;28;45982;-81
2023/07/10 10:35:34;;;;;;;;;1.00;1.00;;;;;;;;5021202;28;47157;-84
2023/07/10 10:38:05;;;;;;;;;0.00;0.00;;;;;;;;4997164;28;45677;-85
2023/07/10 10:40:42;;;;;;;;;1.00;1.00;;;;;;;;4993192;28;45500;-91
2023/07/10 10:43:13;;;;;;;;;1.25;1.25;;;;;;;;5019679;28;45544;-82
2023/07/10 10:46:14;;;;;;;;;2.00;1.00;;;;;;;;4995290;28;47354;-84
2023/07/10 10:48:42;;;;;;;;;0.00;0.00;;;;;;;;4927918;28;45956;-81
2023/07/10 10:51:23;;;;;;;;;4.00;1.25;;;;;;;;4996465;28;45618;-82
2023/07/10 10:53:51;;;;;;;;;2.00;0.75;;;;;;;;5014188;28;45400;-83
2023/07/10 10:56:29;;;;;;;;;1.25;1.00;;;;;;;;5017788;28;45982;-84
2023/07/10 10:59:00;;;;;;;;;4.25;1.75;;;;;;;;4999151;28;45536;-84
2023/07/10 11:01:25;;;;;;;;;1.00;1.00;;;;;;;;5003714;28;45563;-84
2023/07/10 11:03:54;;;;;;;;;3.00;1.00;;;;;;;;5020164;28;45622;-84
2023/07/10 11:06:26;;;;;;;;;2.00;1.00;;;;;;;;5021108;28;47779;-84
2023/07/10 11:08:52;;;;;;;;;2.25;1.00;;;;;;;;5007934;28;45951;-82
2023/07/10 11:11:25;;;;;;;;;3.00;3.00;;;;;;;;4994445;28;45772;-82
2023/07/10 11:13:51;;;;;;;;;3.25;2.00;;;;;;;;4997381;28;46189;-86
2023/07/10 11:16:16;;;;;;;;;3.50;3.50;;;;;;;;4990788;28;48340;-84
2023/07/10 11:18:42;;;;;;;;;3.00;1.00;;;;;;;;5012799;28;45567;-84
2023/07/10 11:21:07;;;;;;;;;3.00;3.00;;;;;;;;5021481;28;44819;-83
2023/07/10 11:23:33;;;;;;;;;1.75;1.00;;;;;;;;5017595;28;45500;-83
2023/07/10 11:26:02;;;;;;;;;3.00;3.00;;;;;;;;5018868;28;46122;-83
2023/07/10 11:28:29;;;;;;;;;2.00;0.25;;;;;;;;5019872;28;44813;-84
2023/07/10 11:31:13;;;;;;;;;1.50;1.00;;;;;;;;5008047;28;45844;-78
2023/07/10 11:33:41;;;;;;;;;1.00;0.25;;;;;;;;4991291;28;46206;-78
2023/07/10 11:36:10;;;;;;;;;0.00;0.00;;;;;;;;4992639;28;47165;-78
2023/07/10 11:38:36;;;;;;;;;1.00;1.00;;;;;;;;5007184;28;45466;-76
2023/07/10 11:41:09;;;;;;;;;0.50;0.50;;;;;;;;5016233;28;45356;-78
2023/07/10 11:43:37;;;;;;;;;1.00;1.00;;;;;;;;5013029;28;47146;-75
2023/07/10 11:46:03;;;;;;;;;1.50;1.50;;;;;;;;5019000;28;45675;-75
2023/07/10 11:48:42;;;;;;;;;0.00;0.00;;;;;;;;5017633;28;45821;-76
2023/07/10 11:51:33;;;;;;;;;3.00;1.50;;;;;;;;5010258;28;45924;-76
2023/07/10 11:54:04;;;;;;;;;3.00;1.25;;;;;;;;5002910;28;45751;-75
2023/07/10 11:56:29;;;;;;;;;1.00;0.75;;;;;;;;5016115;28;45864;-75
2023/07/10 11:58:57;;;;;;;;;1.00;1.00;;;;;;;;5012277;28;45427;-77
2023/07/10 12:01:22;;;;;;;;;1.25;1.25;;;;;;;;5023830;28;45379;-77
2023/07/10 12:03:48;;;;;;;;;2.00;2.00;;;;;;;;5021290;28;45438;-77
2023/07/10 12:06:21;;;;;;;;;2.00;2.00;;;;;;;;5024516;28;46830;-76
2023/07/10 12:08:47;;;;;;;;;1.50;1.50;;;;;;;;5028675;28;45811;-75
2023/07/10 12:11:33;;;;;;;;;1.00;0.00;;;;;;;;5021762;28;45499;-75
2023/07/10 12:14:05;;;;;;;;;2.75;1.00;;;;;;;;5007280;28;46213;-75
2023/07/10 12:16:32;;;;;;;;;1.00;1.00;;;;;;;;5004910;28;47386;-78
2023/07/10 12:19:12;;;;;;;;;1.25;1.00;;;;;;;;5020463;28;45422;-75
2023/07/10 12:21:37;;;;;;;;;1.00;1.00;;;;;;;;4996048;28;45481;-77
2023/07/10 12:24:03;;;;;;;;;0.25;0.25;;;;;;;;4997780;28;46164;-74
2023/07/10 12:26:28;;;;;;;;;1.75;1.00;;;;;;;;5008388;28;48735;-76
2023/07/10 12:28:54;;;;;;;;;0.75;0.75;;;;;;;;5027310;28;45645;-81
2023/07/10 12:31:20;;;;;;;;;0.00;0.00;;;;;;;;5028733;28;45750;-81
2023/07/10 12:33:46;;;;;;;;;1.00;1.00;;;;;;;;5029833;28;45484;-81
2023/07/10 12:36:11;;;;;;;;;1.75;1.00;;;;;;;;5037147;28;45502;-83
2023/07/10 12:38:37;;;;;;;;;1.75;1.75;;;;;;;;5019050;28;45451;-86
2023/07/10 12:41:03;;;;;;;;;1.25;1.25;;;;;;;;5003654;28;44824;-83
2023/07/10 12:43:28;;;;;;;;;1.00;1.00;;;;;;;;5001052;28;45912;-82
2023/07/10 12:45:58;;;;;;;;;0.00;0.00;;;;;;;;5022084;28;45994;-80
2023/07/10 12:48:25;;;;;;;;;1.75;1.75;;;;;;;;5021097;28;45539;-82
2023/07/10 12:50:51;;;;;;;;;1.00;1.00;;;;;;;;5016017;28;45526;-82
2023/07/10 12:53:19;;;;;;;;;2.00;2.00;;;;;;;;5015171;28;45514;-82
2023/07/10 12:55:44;;;;;;;;;2.25;2.25;;;;;;;;5020438;28;46213;-82
2023/07/10 12:58:12;;;;;;;;;2.00;1.00;;;;;;;;5035920;28;45725;-82
2023/07/10 13:00:44;;;;;;;;;1.25;1.00;;;;;;;;5017367;28;45908;-81
2023/07/10 13:03:24;;;;;;;;;0.00;0.00;;;;;;;;5003646;28;45766;-83
2023/07/10 13:05:54;;;;;;;;;1.25;1.25;;;;;;;;5019856;28;45896;-81
2023/07/10 13:08:20;;;;;;;;;0.75;0.75;;;;;;;;5027107;28;45677;-81
2023/07/10 13:10:46;;;;;;;;;0.75;0.75;;;;;;;;5015466;28;45540;-80
2023/07/10 13:13:16;;;;;;;;;1.00;1.00;;;;;;;;5033631;28;45507;-84
2023/07/10 13:15:42;;;;;;;;;0.50;0.50;;;;;;;;5022633;28;45287;-83
2023/07/10 13:18:21;;;;;;;;;0.00;0.00;;;;;;;;5029741;28;45749;-84
2023/07/10 13:20:46;;;;;;;;;0.00;0.00;;;;;;;;5030393;28;45779;-85
2023/07/10 13:23:12;;;;;;;;;0.50;0.00;;;;;;;;5038605;28;45837;-85
2023/07/10 13:25:37;;;;;;;;;0.00;0.00;;;;;;;;5020192;28;45938;-82
2023/07/10 13:28:15;;;;;;;;;0.25;0.25;;;;;;;;5027152;28;45812;-85
2023/07/10 13:30:40;;;;;;;;;0.00;0.00;;;;;;;;5019288;28;45756;-83
2023/07/10 13:33:14;;;;;;;;;0.00;0.00;;;;;;;;5016716;28;45577;-82
2023/07/10 13:35:39;;;;;;;;;0.00;0.00;;;;;;;;5026308;28;46017;-83
2023/07/10 13:38:09;;;;;;;;;1.00;0.00;;;;;;;;5016474;28;45557;-82
2023/07/10 13:40:34;;;;;;;;;1.00;0.00;;;;;;;;5017974;28;45427;-83
2023/07/10 13:42:59;;;;;;;;;0.75;0.75;;;;;;;;5005452;28;45380;-83
2023/07/10 13:45:24;;;;;;;;;1.25;1.25;;;;;;;;4997128;28;47834;-82
2023/07/10 13:47:52;;;;;;;;;2.00;0.00;;;;;;;;5014291;28;45908;-88
2023/07/10 13:50:17;;;;;;;;;0.00;0.00;;;;;;;;4991741;28;44868;-83
2023/07/10 13:52:43;;;;;;;;;1.00;1.00;;;;;;;;4991506;28;45745;-83
2023/07/10 13:55:11;;;;;;;;;1.00;1.00;;;;;;;;4976949;28;46975;-83
2023/07/10 13:57:36;;;;;;;;;0.00;0.00;;;;;;;;4998546;28;45495;-83
2023/07/10 14:00:02;;;;;;;;;3.00;1.00;;;;;;;;4974713;28;46167;-81
2023/07/10 14:02:30;;;;;;;;;0.75;0.75;;;;;;;;4981112;28;45459;-86
2023/07/10 14:04:56;;;;;;;;;2.00;2.00;;;;;;;;4987688;28;47931;-88
2023/07/10 14:07:22;;;;;;;;;0.00;0.00;;;;;;;;5010281;28;46197;-87
2023/07/10 14:09:48;;;;;;;;;0.75;0.75;;;;;;;;4974424;28;45836;-89
2023/07/10 14:12:14;;;;;;;;;3.00;1.00;;;;;;;;4987738;28;45484;-87
2023/07/10 14:14:41;;;;;;;;;1.50;0.00;;;;;;;;4983440;28;48117;-87
2023/07/10 14:17:34;;;;;;;;;2.00;0.25;;;;;;;;4998945;28;45888;-85
2023/07/10 14:20:09;;;;;;;;;1.00;0.00;;;;;;;;4982109;28;45497;-84
2023/07/10 14:22:35;;;;;;;;;1.00;1.00;;;;;;;;4976662;28;45724;-88
2023/07/10 14:25:04;;;;;;;;;0.00;0.00;;;;;;;;4987660;28;45543;-83
2023/07/10 14:27:58;;;;;;;;;0.50;0.50;;;;;;;;4977401;28;45463;-85
2023/07/10 14:30:44;;;;;;;;;0.00;0.00;;;;;;;;4980500;28;45714;-87
2023/07/10 14:33:14;;;;;;;;;0.50;0.50;;;;;;;;4987154;28;45461;-87
2023/07/10 14:35:44;;;;;;;;;2.00;2.00;;;;;;;;4979202;28;46249;-88
2023/07/10 15:06:29;;;;;;;;;1.00;1.00;;;;;;;;4976687;28;45461;-86
2023/07/10 15:09:08;;;;;;;;;;;;;;;;;;;;;
2023/07/10 15:12:00;;;;;;;;;2.00;2.00;;;;;;;;4978635;28;75592;-87